createdAt,value
2022-10-25T00:02:21.309Z,97314.13
2022-10-25T00:04:49.132Z,97310.31
2022-10-25T00:07:16.481Z,97318.41
2022-10-25T00:09:43.666Z,97324.31
2022-10-25T00:12:11.012Z,97317.31
2022-10-25T00:14:38.209Z,97317.78
2022-10-25T00:17:05.489Z,97311.09
2022-10-25T00:19:32.946Z,97310.81
2022-10-25T00:22:00.134Z,97295.78
2022-10-25T00:24:27.585Z,97296.75
2022-10-25T00:26:54.912Z,97294.94
2022-10-25T00:31:54.206Z,97306.75
2022-10-25T00:34:21.615Z,97305.84
2022-10-25T00:36:48.877Z,97308.19
2022-10-25T00:39:16.151Z,97312.34
2022-10-25T00:41:43.429Z,97309.41
2022-10-25T00:44:55.592Z,97322.31
2022-10-25T00:47:44.227Z,97323.59
2022-10-25T00:50:33.520Z,97328.63
2022-10-25T00:53:09.786Z,97334.16
2022-10-25T00:55:42.286Z,97335.50
2022-10-25T00:58:16.443Z,97330.41
2022-10-25T01:00:46.008Z,97337.31
2022-10-25T01:03:16.605Z,97337.88
2022-10-25T01:05:44.571Z,97339.16
2022-10-25T01:08:12.379Z,97329.41
2022-10-25T01:10:40.470Z,97323.72
2022-10-25T01:13:07.857Z,97313.91
2022-10-25T01:16:20.677Z,97310.03
2022-10-25T01:19:01.389Z,97318.28
2022-10-25T01:21:45.807Z,97325.38
2022-10-25T01:25:06.626Z,97332.84
2022-10-25T01:27:58.198Z,97325.31
2022-10-25T01:30:57.769Z,97334.59
2022-10-25T01:34:06.924Z,97327.13
2022-10-25T01:36:39.849Z,97320.88
2022-10-25T01:39:17.933Z,97323.50
2022-10-25T01:42:04.608Z,97333.06
2022-10-25T01:44:54.311Z,97342.75
2022-10-25T01:47:41.211Z,97332.66
2022-10-25T01:50:21.194Z,97346.06
2022-10-25T01:52:48.542Z,97341.53
2022-10-25T01:55:16.449Z,97345.78
2022-10-25T01:57:57.135Z,97343.13
2022-10-25T02:00:26.042Z,97336.06
2022-10-25T02:03:10.060Z,97339.44
2022-10-25T02:06:02.163Z,97331.00
2022-10-25T02:08:36.740Z,97335.38
2022-10-25T02:11:32.161Z,97342.25
2022-10-25T02:14:34.915Z,97335.50
2022-10-25T02:17:17.905Z,97336.31
2022-10-25T02:20:00.071Z,97333.44
2022-10-25T02:22:32.703Z,97342.34
2022-10-25T02:25:01.387Z,97337.63
2022-10-25T02:27:31.364Z,97332.94
2022-10-25T02:30:00.031Z,97333.66
2022-10-25T02:32:27.519Z,97330.50
2022-10-25T02:34:54.708Z,97335.31
2022-10-25T02:37:22.008Z,97331.72
2022-10-25T02:39:50.534Z,97342.19
2022-10-25T02:42:17.840Z,97345.41
2022-10-25T02:44:45.043Z,97334.78
2022-10-25T02:47:12.295Z,97331.38
2022-10-25T02:49:39.592Z,97335.66
2022-10-25T02:52:06.976Z,97337.25
2022-10-25T02:54:34.172Z,97339.28
2022-10-25T02:57:01.399Z,97334.81
2022-10-25T02:59:29.717Z,97333.44
2022-10-25T03:01:57.082Z,97340.09
2022-10-25T03:04:24.369Z,97341.69
2022-10-25T03:06:51.857Z,97342.41
2022-10-25T03:09:19.293Z,97346.44
2022-10-25T03:11:46.618Z,97345.81
2022-10-25T03:14:13.903Z,97351.44
2022-10-25T03:16:41.239Z,97350.38
2022-10-25T03:19:08.764Z,97349.28
2022-10-25T03:21:38.663Z,97352.81
2022-10-25T03:24:08.697Z,97353.09
2022-10-25T03:26:35.938Z,97353.38
2022-10-25T03:29:03.225Z,97354.22
2022-10-25T03:31:31.079Z,97353.09
2022-10-25T03:33:58.377Z,97371.25
2022-10-25T03:36:25.656Z,97373.63
2022-10-25T03:38:52.919Z,97371.00
2022-10-25T03:41:20.132Z,97377.72
2022-10-25T03:43:47.376Z,97378.94
2022-10-25T03:46:14.603Z,97379.88
2022-10-25T03:48:41.872Z,97379.81
2022-10-25T03:51:09.006Z,97379.00
2022-10-25T03:53:36.375Z,97377.59
2022-10-25T03:56:03.609Z,97375.06
2022-10-25T03:58:30.957Z,97375.28
2022-10-25T04:01:00.146Z,97375.78
2022-10-25T04:03:27.432Z,97373.84
2022-10-25T04:05:54.703Z,97369.19
2022-10-25T04:08:21.890Z,97371.28
2022-10-25T04:10:49.108Z,97368.81
2022-10-25T04:13:16.427Z,97362.50
2022-10-25T04:15:43.760Z,97366.72
2022-10-25T04:18:11.020Z,97357.38
2022-10-25T04:20:38.351Z,97344.69
2022-10-25T04:23:05.680Z,97350.69
2022-10-25T04:25:32.884Z,97351.97
2022-10-25T04:28:00.534Z,97359.13
2022-10-25T04:30:27.806Z,97349.22
2022-10-25T04:32:56.695Z,97353.53
2022-10-25T04:35:24.457Z,97353.31
2022-10-25T04:37:52.040Z,97348.00
2022-10-25T04:40:24.064Z,97341.19
2022-10-25T04:42:52.281Z,97354.09
2022-10-25T04:45:19.658Z,97346.41
2022-10-25T04:47:47.740Z,97347.13
2022-10-25T04:50:14.959Z,97344.81
2022-10-25T04:52:42.320Z,97348.81
2022-10-25T04:55:09.745Z,97346.69
2022-10-25T04:57:36.915Z,97344.69
2022-10-25T05:00:05.384Z,97337.94
2022-10-25T05:02:32.723Z,97338.59
2022-10-25T05:05:00.080Z,97339.25
2022-10-25T05:07:27.387Z,97346.50
2022-10-25T05:09:54.667Z,97361.75
2022-10-25T05:12:23.895Z,97362.81
2022-10-25T05:14:51.187Z,97351.78
2022-10-25T05:17:18.322Z,97357.38
2022-10-25T05:19:45.470Z,97355.53
2022-10-25T05:22:12.684Z,97353.44
2022-10-25T05:24:39.816Z,97361.91
2022-10-25T05:27:07.009Z,97366.66
2022-10-25T05:29:34.184Z,97371.97
2022-10-25T05:32:01.371Z,97375.34
2022-10-25T05:34:28.714Z,97370.81
2022-10-25T05:36:55.915Z,97373.63
2022-10-25T05:39:23.142Z,97372.69
2022-10-25T05:41:50.732Z,97365.84
2022-10-25T05:44:18.273Z,97368.81
2022-10-25T05:46:45.937Z,97372.22
2022-10-25T05:49:13.939Z,97383.34
2022-10-25T05:51:41.108Z,97383.97
2022-10-25T05:54:14.172Z,97387.63
2022-10-25T05:56:43.098Z,97393.22
2022-10-25T05:59:15.457Z,97392.78
2022-10-25T06:01:46.196Z,97403.19
2022-10-25T06:04:14.585Z,97403.97
2022-10-25T06:06:43.808Z,97399.56
2022-10-25T06:09:12.149Z,97410.84
2022-10-25T06:11:40.100Z,97420.38
2022-10-25T06:14:10.352Z,97428.91
2022-10-25T06:16:38.263Z,97441.00
2022-10-25T06:19:05.537Z,97435.16
2022-10-25T06:21:32.853Z,97436.66
2022-10-25T06:24:00.478Z,97448.22
2022-10-25T06:26:30.396Z,97463.94
2022-10-25T06:29:01.308Z,97462.78
2022-10-25T06:31:30.067Z,97466.47
2022-10-25T06:33:59.719Z,97480.63
2022-10-25T06:36:27.890Z,97481.75
2022-10-25T06:38:55.214Z,97481.84
2022-10-25T06:41:27.884Z,97488.53
2022-10-25T06:43:55.859Z,97485.03
2022-10-25T06:46:30.604Z,97478.63
2022-10-25T06:48:59.408Z,97479.34
2022-10-25T06:51:29.124Z,97476.09
2022-10-25T06:53:58.865Z,97476.94
2022-10-25T06:56:28.189Z,97481.03
2022-10-25T06:58:55.955Z,97484.41
2022-10-25T07:01:25.629Z,97483.25
2022-10-25T07:03:54.911Z,97486.72
2022-10-25T07:06:29.659Z,97482.72
2022-10-25T07:08:59.253Z,97487.16
2022-10-25T07:11:29.411Z,97485.13
2022-10-25T07:13:58.802Z,97487.19
2022-10-25T07:16:27.725Z,97489.47
2022-10-25T07:19:00.083Z,97483.75
2022-10-25T07:21:29.198Z,97482.97
2022-10-25T07:23:56.590Z,97487.88
2022-10-25T07:26:26.135Z,97482.47
2022-10-25T07:28:56.351Z,97485.59
2022-10-25T07:31:29.684Z,97489.25
2022-10-25T07:34:00.734Z,97495.44
2022-10-25T07:36:28.235Z,97494.59
2022-10-25T07:38:57.080Z,97495.38
2022-10-25T07:41:25.603Z,97485.72
2022-10-25T07:43:52.930Z,97483.97
2022-10-25T07:46:20.182Z,97497.56
2022-10-25T07:48:47.639Z,97493.59
2022-10-25T07:51:17.152Z,97490.03
2022-10-25T07:53:44.803Z,97479.47
2022-10-25T07:56:22.170Z,97488.22
2022-10-25T07:58:54.477Z,97487.75
2022-10-25T08:01:25.028Z,97488.75
2022-10-25T08:03:53.688Z,97493.81
2022-10-25T08:06:23.443Z,97492.91
2022-10-25T08:08:51.251Z,97490.09
2022-10-25T08:11:18.937Z,97498.56
2022-10-25T08:13:50.307Z,97500.88
2022-10-25T08:16:17.952Z,97500.13
2022-10-25T08:18:45.177Z,97493.25
2022-10-25T08:21:12.374Z,97496.00
2022-10-25T08:23:39.639Z,97508.41
2022-10-25T08:26:07.160Z,97503.88
2022-10-25T08:28:34.413Z,97510.47
2022-10-25T08:31:02.004Z,97506.78
2022-10-25T08:33:30.250Z,97501.22
2022-10-25T08:36:01.735Z,97504.03
2022-10-25T08:38:29.556Z,97506.63
2022-10-25T08:40:59.561Z,97500.31
2022-10-25T08:43:53.084Z,97503.16
2022-10-25T08:46:30.866Z,97508.78
2022-10-25T08:49:19.752Z,97507.44
2022-10-25T08:51:50.620Z,97516.69
2022-10-25T08:54:43.566Z,97504.41
2022-10-25T08:57:32.142Z,97497.28
2022-10-25T09:00:12.267Z,97500.97
2022-10-25T09:02:55.378Z,97506.56
2022-10-25T09:05:52.986Z,97498.91
2022-10-25T09:08:38.686Z,97503.00
2022-10-25T09:11:23.886Z,97504.19
2022-10-25T09:14:28.257Z,97499.97
2022-10-25T09:17:16.265Z,97506.78
2022-10-25T09:20:10.742Z,97503.34
2022-10-25T09:22:57.883Z,97502.66
2022-10-25T09:25:54.239Z,97506.59
2022-10-25T09:29:02.753Z,97513.44
2022-10-25T09:31:39.192Z,97519.81
2022-10-25T09:34:10.572Z,97513.59
2022-10-25T09:36:45.438Z,97519.81
2022-10-25T09:39:37.358Z,97523.22
2022-10-25T09:42:07.696Z,97526.03
2022-10-25T09:44:47.033Z,97519.09
2022-10-25T09:47:29.275Z,97516.78
2022-10-25T09:50:06.165Z,97519.34
2022-10-25T09:55:56.333Z,97506.59
2022-10-25T09:58:27.147Z,97513.38
2022-10-25T10:00:58.749Z,97513.38
2022-10-25T10:03:32.383Z,97514.47
2022-10-25T10:06:12.224Z,97517.06
2022-10-25T10:08:46.155Z,97515.59
2022-10-25T10:11:18.017Z,97516.06
2022-10-25T10:13:57.024Z,97510.09
2022-10-25T10:16:32.675Z,97501.38
2022-10-25T10:19:25.082Z,97499.22
2022-10-25T10:22:12.760Z,97502.28
2022-10-25T10:25:00.938Z,97513.88
2022-10-25T10:27:29.395Z,97510.44
2022-10-25T10:30:02.518Z,97513.66
2022-10-25T10:32:38.111Z,97513.66
2022-10-25T10:35:31.153Z,97522.50
2022-10-25T10:38:30.960Z,97518.94
2022-10-25T10:41:28.641Z,97518.56
2022-10-25T10:44:13.857Z,97519.47
2022-10-25T10:46:46.584Z,97518.88
2022-10-25T10:49:16.204Z,97516.47
2022-10-25T10:51:45.737Z,97515.13
2022-10-25T10:54:29.284Z,97503.75
2022-10-25T10:57:03.218Z,97502.91
2022-10-25T10:59:46.814Z,97506.41
2022-10-25T11:02:35.163Z,97511.56
2022-10-25T11:05:02.984Z,97503.63
2022-10-25T11:07:36.202Z,97514.72
2022-10-25T11:10:15.901Z,97513.34
2022-10-25T11:12:44.422Z,97521.25
2022-10-25T11:15:16.008Z,97524.66
2022-10-25T11:17:54.409Z,97525.78
2022-10-25T11:20:41.655Z,97526.28
2022-10-25T11:23:39.411Z,97530.16
2022-10-25T11:26:27.886Z,97530.56
2022-10-25T11:28:58.679Z,97529.47
2022-10-25T11:32:24.804Z,97533.66
2022-10-25T11:35:10.569Z,97537.88
2022-10-25T11:38:06.629Z,97529.81
2022-10-25T11:40:41.449Z,97524.88
2022-10-25T11:43:42.470Z,97522.09
2022-10-25T11:46:45.430Z,97530.09
2022-10-25T11:49:26.909Z,97529.97
2022-10-25T11:52:58.236Z,97526.56
2022-10-25T11:55:50.402Z,97512.41
2022-10-25T11:58:38.668Z,97513.84
2022-10-25T12:01:39.430Z,97518.94
2022-10-25T12:04:32.751Z,97517.16
2022-10-25T12:07:22.483Z,97519.63
2022-10-25T12:09:59.564Z,97516.50
2022-10-25T12:12:49.496Z,97510.84
2022-10-25T12:15:27.742Z,97505.44
2022-10-25T12:17:55.149Z,97509.34
2022-10-25T12:20:28.426Z,97509.44
2022-10-25T12:22:59.783Z,97518.25
2022-10-25T12:25:41.562Z,97523.94
2022-10-25T12:28:40.700Z,97515.66
2022-10-25T12:31:36.019Z,97514.16
2022-10-25T12:34:48.716Z,97522.56
2022-10-25T12:37:40.141Z,97514.88
2022-10-25T12:40:20.853Z,97511.88
2022-10-25T12:42:57.499Z,97510.88
2022-10-25T12:45:42.736Z,97508.69
2022-10-25T12:48:53.600Z,97507.72
2022-10-25T12:52:05.474Z,97511.09
2022-10-25T12:55:04.437Z,97515.53
2022-10-25T12:57:53.002Z,97524.47
2022-10-25T13:00:23.876Z,97516.56
2022-10-25T13:03:31.073Z,97522.66
2022-10-25T13:06:16.283Z,97523.34
2022-10-25T13:08:44.824Z,97527.41
2022-10-25T13:11:12.744Z,97531.25
2022-10-25T13:13:53.766Z,97522.13
2022-10-25T13:16:28.654Z,97526.72
2022-10-25T13:19:36.299Z,97525.91
2022-10-25T13:22:40.452Z,97520.25
2022-10-25T13:25:13.695Z,97528.72
2022-10-25T13:28:15.955Z,97529.66
2022-10-25T13:30:44.450Z,97531.44
2022-10-25T13:33:24.361Z,97518.34
2022-10-25T13:35:51.543Z,97532.03
2022-10-25T13:38:34.180Z,97527.00
2022-10-25T13:41:20.247Z,97531.06
2022-10-25T13:44:05.252Z,97528.69
2022-10-25T13:46:41.449Z,97535.72
2022-10-25T13:49:32.883Z,97522.22
2022-10-25T13:52:08.494Z,97536.94
2022-10-25T13:54:55.528Z,97537.06
2022-10-25T13:57:58.709Z,97547.19
2022-10-25T14:00:37.721Z,97545.97
2022-10-25T14:03:13.123Z,97540.31
2022-10-25T14:05:55.725Z,97544.31
2022-10-25T14:08:51.466Z,97541.22
2022-10-25T14:11:32.025Z,97543.97
2022-10-25T14:14:26.881Z,97544.63
2022-10-25T14:17:04.147Z,97544.63
2022-10-25T14:19:42.819Z,97550.06
2022-10-25T14:22:40.429Z,97549.31
2022-10-25T14:25:26.977Z,97546.28
2022-10-25T14:28:17.690Z,97547.38
2022-10-25T14:31:02.171Z,97542.88
2022-10-25T14:33:36.576Z,97539.34
2022-10-25T14:36:06.639Z,97544.00
2022-10-25T14:38:55.223Z,97552.69
2022-10-25T14:41:31.038Z,97538.31
2022-10-25T14:43:58.632Z,97536.72
2022-10-25T14:46:30.230Z,97537.59
2022-10-25T14:49:00.489Z,97537.69
2022-10-25T14:51:38.190Z,97541.44
2022-10-25T14:54:16.029Z,97541.84
2022-10-25T14:57:01.404Z,97538.78
2022-10-25T14:59:48.902Z,97539.94
2022-10-25T15:02:23.162Z,97537.38
2022-10-25T15:04:54.396Z,97541.84
2022-10-25T15:07:42.539Z,97540.94
2022-10-25T15:10:46.150Z,97543.44
2022-10-25T15:13:44.439Z,97547.13
2022-10-25T15:16:41.120Z,97547.94
2022-10-25T15:19:14.305Z,97552.56
2022-10-25T15:21:49.225Z,97549.34
2022-10-25T15:24:26.239Z,97543.59
2022-10-25T15:27:01.445Z,97541.53
2022-10-25T15:29:40.850Z,97545.56
2022-10-25T15:32:24.235Z,97553.38
2022-10-25T15:34:59.876Z,97553.59
2022-10-25T15:37:29.208Z,97550.31
2022-10-25T15:39:57.254Z,97565.00
2022-10-25T15:42:26.145Z,97564.53
2022-10-25T15:44:53.589Z,97558.84
2022-10-25T15:47:34.275Z,97562.41
2022-10-25T15:50:03.577Z,97564.84
2022-10-25T15:52:30.853Z,97564.63
2022-10-25T15:54:58.124Z,97564.38
2022-10-25T15:57:27.390Z,97572.44
2022-10-25T15:59:54.829Z,97570.59
2022-10-25T16:02:31.977Z,97573.38
2022-10-25T16:04:59.369Z,97566.91
2022-10-25T16:07:26.761Z,97573.03
2022-10-25T16:09:53.917Z,97580.72
2022-10-25T16:12:29.525Z,97577.00
2022-10-25T16:14:57.045Z,97584.34
2022-10-25T16:17:24.317Z,97582.47
2022-10-25T16:19:51.509Z,97583.75
2022-10-25T16:22:18.729Z,97583.88
2022-10-25T16:24:45.976Z,97589.19
2022-10-25T16:27:13.832Z,97596.31
2022-10-25T16:29:41.143Z,97598.13
2022-10-25T16:32:08.497Z,97597.19
2022-10-25T16:34:35.687Z,97595.72
2022-10-25T16:37:03.940Z,97597.88
2022-10-25T16:39:32.739Z,97597.19
2022-10-25T16:41:59.979Z,97590.34
2022-10-25T16:44:27.307Z,97592.28
2022-10-25T16:46:54.783Z,97591.97
2022-10-25T16:49:22.068Z,97589.84
2022-10-25T16:51:50.053Z,97583.75
2022-10-25T16:54:19.665Z,97578.72
2022-10-25T16:56:50.785Z,97588.00
2022-10-25T16:59:18.231Z,97589.34
2022-10-25T17:01:46.755Z,97597.56
2022-10-25T17:04:17.099Z,97592.34
2022-10-25T17:06:44.400Z,97587.28
2022-10-25T17:09:11.827Z,97594.31
2022-10-25T17:11:39.237Z,97599.91
2022-10-25T17:14:07.131Z,97611.94
2022-10-25T17:16:34.389Z,97608.00
2022-10-25T17:19:05.331Z,97602.25
2022-10-25T17:21:35.361Z,97612.59
2022-10-25T17:24:04.653Z,97615.13
2022-10-25T17:26:32.003Z,97618.28
2022-10-25T17:29:00.930Z,97619.63
2022-10-25T17:31:28.527Z,97617.53
2022-10-25T17:33:58.874Z,97625.72
2022-10-25T17:36:26.748Z,97621.47
2022-10-25T17:38:55.104Z,97625.44
2022-10-25T17:41:22.910Z,97630.00
2022-10-25T17:43:53.244Z,97637.66
2022-10-25T17:46:29.305Z,97634.28
2022-10-25T17:49:03.466Z,97631.91
2022-10-25T17:51:34.007Z,97642.28
2022-10-25T17:54:01.999Z,97628.56
2022-10-25T17:59:07.104Z,97635.94
2022-10-25T18:01:35.870Z,97642.13
2022-10-25T18:04:03.636Z,97642.63
2022-10-25T18:06:31.091Z,97640.22
2022-10-25T18:09:00.146Z,97642.25
2022-10-25T18:11:28.427Z,97639.63
2022-10-25T18:14:01.914Z,97646.53
2022-10-25T18:16:31.118Z,97633.03
2022-10-25T18:19:01.980Z,97639.44
2022-10-25T18:21:29.964Z,97642.88
2022-10-25T18:24:03.131Z,97646.53
2022-10-25T18:26:31.487Z,97646.03
2022-10-25T18:28:59.302Z,97641.53
2022-10-25T18:31:27.357Z,97649.03
2022-10-25T18:33:55.528Z,97647.41
2022-10-25T18:36:22.845Z,97654.59
2022-10-25T18:38:50.982Z,97645.06
2022-10-25T18:41:27.263Z,97643.75
2022-10-25T18:43:55.223Z,97651.72
2022-10-25T18:46:24.863Z,97656.75
2022-10-25T18:48:55.544Z,97656.19
2022-10-25T18:51:23.929Z,97658.84
2022-10-25T18:54:02.007Z,97659.38
2022-10-25T18:56:30.939Z,97662.28
2022-10-25T18:58:59.262Z,97657.50
2022-10-25T19:01:32.794Z,97661.78
2022-10-25T19:04:02.904Z,97662.53
2022-10-25T19:06:31.425Z,97656.47
2022-10-25T19:08:58.908Z,97662.28
2022-10-25T19:11:26.282Z,97662.00
2022-10-25T19:13:55.469Z,97660.41
2022-10-25T19:16:23.895Z,97665.19
2022-10-25T19:18:51.340Z,97664.13
2022-10-25T19:21:19.436Z,97661.97
2022-10-25T19:23:48.070Z,97664.38
2022-10-25T19:26:20.607Z,97666.75
2022-10-25T19:28:54.613Z,97667.50
2022-10-25T19:31:22.487Z,97667.75
2022-10-25T19:33:51.053Z,97671.72
2022-10-25T19:36:20.033Z,97674.91
2022-10-25T19:38:50.744Z,97672.00
2022-10-25T19:41:23.094Z,97675.19
2022-10-25T19:43:50.761Z,97677.28
2022-10-25T19:46:19.012Z,97674.66
2022-10-25T19:48:46.549Z,97670.16
2022-10-25T19:51:20.670Z,97667.75
2022-10-25T19:53:49.399Z,97669.63
2022-10-25T19:56:20.456Z,97677.00
2022-10-25T19:58:48.580Z,97674.84
2022-10-25T20:01:26.830Z,97680.94
2022-10-25T20:03:57.541Z,97671.41
2022-10-25T20:06:30.556Z,97671.44
2022-10-25T20:09:00.490Z,97675.16
2022-10-25T20:11:29.255Z,97670.91
2022-10-25T20:14:01.543Z,97669.25
2022-10-25T20:16:30.377Z,97679.63
2022-10-25T20:19:01.301Z,97685.25
2022-10-25T20:21:35.870Z,97682.88
2022-10-25T20:24:07.382Z,97683.94
2022-10-25T20:26:38.209Z,97681.03
2022-10-25T20:29:17.026Z,97681.84
2022-10-25T20:31:47.881Z,97686.63
2022-10-25T20:34:15.352Z,97686.09
2022-10-25T20:36:43.136Z,97682.91
2022-10-25T20:39:13.102Z,97687.13
2022-10-25T20:41:40.703Z,97688.47
2022-10-25T20:44:09.318Z,97686.34
2022-10-25T20:46:36.836Z,97681.06
2022-10-25T20:49:04.913Z,97684.75
2022-10-25T20:51:32.421Z,97685.00
2022-10-25T20:53:59.862Z,97689.78
2022-10-25T20:56:27.315Z,97687.91
2022-10-25T20:58:54.885Z,97688.47
2022-10-25T21:01:22.241Z,97685.56
2022-10-25T21:03:49.556Z,97685.56
2022-10-25T21:06:16.870Z,97681.31
2022-10-25T21:08:44.087Z,97682.66
2022-10-25T21:11:13.301Z,97683.47
2022-10-25T21:13:41.098Z,97683.19
2022-10-25T21:16:15.056Z,97686.34
2022-10-25T21:18:43.721Z,97687.44
2022-10-25T21:21:20.314Z,97687.44
2022-10-25T21:23:48.271Z,97691.13
2022-10-25T21:26:16.292Z,97690.06
2022-10-25T21:28:43.826Z,97691.66
2022-10-25T21:31:14.026Z,97694.81
2022-10-25T21:33:49.810Z,97691.91
2022-10-25T21:36:19.934Z,97691.09
2022-10-25T21:38:47.207Z,97691.34
2022-10-25T21:41:31.759Z,97697.44
2022-10-25T21:43:59.206Z,97697.69
2022-10-25T21:46:28.124Z,97691.34
2022-10-25T21:48:55.966Z,97691.59
2022-10-25T21:51:24.551Z,97696.88
2022-10-25T21:56:23.436Z,97696.38
2022-10-25T21:58:51.500Z,97691.59
2022-10-25T22:01:25.109Z,97698.50
2022-10-25T22:03:52.645Z,97695.28
2022-10-25T22:06:25.189Z,97699.00
2022-10-25T22:08:55.657Z,97695.53
2022-10-25T22:11:26.804Z,97696.34
2022-10-25T22:13:56.837Z,97691.59
2022-10-25T22:16:25.011Z,97694.50
2022-10-25T22:19:03.060Z,97693.75
2022-10-25T22:21:34.939Z,97695.59
2022-10-25T22:24:03.407Z,97692.44
2022-10-25T22:26:30.987Z,97697.44
2022-10-25T22:28:59.386Z,97692.41
2022-10-25T22:31:29.293Z,97694.03
2022-10-25T22:34:01.275Z,97691.63
2022-10-25T22:36:31.850Z,97695.09
2022-10-25T22:38:59.348Z,97686.34
2022-10-25T22:41:28.837Z,97693.22
2022-10-25T22:43:57.070Z,97698.78
2022-10-25T22:46:30.970Z,97701.97
2022-10-25T22:49:00.131Z,97703.56
2022-10-25T22:51:28.802Z,97691.66
2022-10-25T22:53:56.588Z,97701.44
2022-10-25T22:56:27.098Z,97709.13
2022-10-25T22:58:57.584Z,97712.31
2022-10-25T23:01:28.336Z,97709.94
2022-10-25T23:03:57.678Z,97706.75
2022-10-25T23:06:38.588Z,97715.50
2022-10-25T23:09:09.227Z,97715.47
2022-10-25T23:11:37.956Z,97715.50
2022-10-25T23:14:07.425Z,97710.97
2022-10-25T23:16:35.171Z,97711.53
2022-10-25T23:19:03.040Z,97704.34
2022-10-25T23:21:31.041Z,97701.72
2022-10-25T23:24:00.358Z,97708.59
2022-10-25T23:26:32.174Z,97705.69
2022-10-25T23:29:00.836Z,97701.19
2022-10-25T23:31:29.746Z,97709.13
2022-10-25T23:34:00.167Z,97711.50
2022-10-25T23:36:30.589Z,97702.50
2022-10-25T23:38:58.863Z,97707.53
2022-10-25T23:41:26.226Z,97709.38
2022-10-25T23:43:53.487Z,97713.06
2022-10-25T23:46:20.822Z,97707.97
2022-10-25T23:48:48.370Z,97706.56
2022-10-25T23:51:18.349Z,97709.69
2022-10-25T23:53:45.859Z,97708.91
2022-10-25T23:56:14.651Z,97708.34
2022-10-25T23:58:42.321Z,97710.91
